Farwell, Michigan
Current Conditions -  °F | °C
As of 8:15 PM on Tuesday 25 Nov 2014 (Local Time) from KMOP Reporting Station
Overcast Overcast  
Wind Chill: 24°   Ceiling: 2700
Heat Index: 29°   Visibility: 10mi
Dew Point: 21°   Wind: 5mph
Humidity: 71%   Direction: 240°WSW
Pressure: 30.13"   Gusts: NA
Location:  43.84°N, 84.87°W
Report Text: KMOP 260115Z AUTO 24004KT 10SM OVC027 M01/M06 A3013 RMK AO2 T10151061
Loading
Personal Weather Stations






























Interactive Weather Map New forecast layout! Learn more

10-Day Weather Forecast

Advertisements
Track Severe Weather on mobile